Time;durP1;ratioP1;P1;durP2;ratioP2;P2;SDS_P1;SDS_P2;PMS_P1;PMS_P2;Temp;Humidity;BMP_temperature;BMP_pressure;BME280_temperature;BME280_humidity;BME280_pressure;Samples;Min_cycle;Max_cycle;Signal;HPM_P1;HPM_P2
2024/01/11 00:01:46;;;;;;;43.13;24.57;;;-3.50;79.60;;;;;;4999388;28;20467;-81
2024/01/11 00:04:11;;;;;;;36.63;21.63;;;-3.50;79.60;;;;;;5015523;28;20044;-81
2024/01/11 00:06:42;;;;;;;34.53;20.90;;;-3.50;79.60;;;;;;5021021;28;20038;-81
2024/01/11 00:09:07;;;;;;;38.50;22.63;;;-3.50;79.70;;;;;;5011523;28;20129;-80
2024/01/11 00:11:33;;;;;;;34.83;20.90;;;-3.50;79.60;;;;;;5018448;28;20048;-81
2024/01/11 00:13:59;;;;;;;37.93;23.20;;;-3.50;79.50;;;;;;5017580;28;20037;-80
2024/01/11 00:16:24;;;;;;;37.63;23.37;;;-3.50;79.50;;;;;;5002026;28;20168;-80
2024/01/11 00:18:50;;;;;;;33.10;21.20;;;-3.50;79.40;;;;;;5024359;28;20567;-80
2024/01/11 00:21:15;;;;;;;34.30;21.93;;;-3.50;79.40;;;;;;5002181;28;20040;-80
2024/01/11 00:23:41;;;;;;;32.67;21.70;;;-3.40;79.40;;;;;;5019542;28;20038;-80
2024/01/11 00:26:06;;;;;;;36.53;21.57;;;-3.40;79.40;;;;;;5021121;28;20451;-80
2024/01/11 00:28:32;;;;;;;33.87;19.87;;;-3.40;79.50;;;;;;5021457;28;20037;-80
2024/01/11 00:30:58;;;;;;;33.47;20.33;;;-3.40;79.50;;;;;;5023266;28;20038;-80
2024/01/11 00:33:23;;;;;;;34.57;21.20;;;-3.40;79.60;;;;;;5009981;28;20077;-80
2024/01/11 00:35:49;;;;;;;33.77;20.97;;;-3.30;79.70;;;;;;5001721;28;20057;-81
2024/01/11 00:38:14;;;;;;;38.47;23.63;;;-3.30;79.90;;;;;;5009179;28;20408;-81
2024/01/11 00:40:40;;;;;;;37.87;23.33;;;-3.30;79.90;;;;;;5020393;28;20030;-81
2024/01/11 00:43:06;;;;;;;36.57;22.87;;;-3.30;79.70;;;;;;5036863;28;20048;-81
2024/01/11 00:45:31;;;;;;;38.53;23.70;;;-3.30;79.40;;;;;;5004999;28;20046;-81
2024/01/11 00:47:57;;;;;;;38.77;23.80;;;-3.30;79.30;;;;;;5021874;28;20045;-81
2024/01/11 00:50:22;;;;;;;34.10;20.53;;;-3.30;79.20;;;;;;5023285;28;20037;-81
2024/01/11 00:52:48;;;;;;;31.93;20.23;;;-3.30;79.00;;;;;;5016498;28;20080;-81
2024/01/11 00:55:14;;;;;;;33.87;20.47;;;-3.30;78.90;;;;;;5017725;28;20060;-81
2024/01/11 00:57:39;;;;;;;32.07;20.13;;;-3.20;79.00;;;;;;5015978;28;20172;-81
2024/01/11 01:00:05;;;;;;;31.57;19.03;;;-3.30;79.00;;;;;;5018413;28;20042;-81
2024/01/11 01:02:31;;;;;;;32.83;20.40;;;-3.30;79.00;;;;;;5020224;28;20460;-81
2024/01/11 01:04:57;;;;;;;38.83;22.77;;;-3.20;79.10;;;;;;5020386;28;20034;-81
2024/01/11 01:07:22;;;;;;;33.70;20.23;;;-3.20;79.10;;;;;;5021124;28;20037;-81
2024/01/11 01:09:48;;;;;;;34.67;21.60;;;-3.20;78.90;;;;;;5015538;28;20129;-81
2024/01/11 01:12:13;;;;;;;35.60;21.93;;;-3.20;78.90;;;;;;5021669;28;20484;-81
2024/01/11 01:14:39;;;;;;;29.87;20.00;;;-3.10;79.40;;;;;;5002962;28;20041;-81
2024/01/11 01:17:05;;;;;;;34.50;20.50;;;-3.20;79.40;;;;;;5020022;28;20173;-81
2024/01/11 01:19:30;;;;;;;33.47;19.87;;;-3.10;79.10;;;;;;4999375;28;20139;-81
2024/01/11 01:21:56;;;;;;;35.13;20.53;;;-3.10;79.00;;;;;;5019717;28;20045;-81
2024/01/11 01:24:21;;;;;;;31.13;20.63;;;-3.10;79.00;;;;;;5012761;28;20041;-81
2024/01/11 01:26:47;;;;;;;34.80;21.53;;;-3.10;79.00;;;;;;5010589;28;20048;-82
2024/01/11 01:29:14;;;;;;;32.63;20.23;;;-3.10;78.90;;;;;;5031821;28;20064;-82
2024/01/11 01:31:39;;;;;;;33.60;20.50;;;-3.10;78.90;;;;;;5029119;28;20034;-82
2024/01/11 01:34:06;;;;;;;31.50;19.27;;;-3.10;78.80;;;;;;5029545;28;20067;-82
2024/01/11 01:36:32;;;;;;;35.37;20.87;;;-3.10;78.80;;;;;;5040725;28;20140;-82
2024/01/11 01:38:57;;;;;;;32.40;19.47;;;-3.10;78.70;;;;;;5022163;28;20065;-82
2024/01/11 01:41:23;;;;;;;33.67;20.70;;;-3.10;78.70;;;;;;5022305;28;20033;-82
2024/01/11 01:43:48;;;;;;;35.03;21.47;;;-3.00;78.60;;;;;;5007550;28;20133;-82
2024/01/11 01:46:21;;;;;;;33.67;20.40;;;-3.00;78.60;;;;;;5027153;28;20042;-82
2024/01/11 01:48:47;;;;;;;33.90;19.83;;;-3.00;78.60;;;;;;5027130;28;20048;-82
2024/01/11 01:51:14;;;;;;;33.30;20.43;;;-3.00;78.60;;;;;;5025863;28;20529;-82
2024/01/11 01:53:40;;;;;;;32.07;19.70;;;-3.00;78.50;;;;;;5026592;28;20045;-82
2024/01/11 01:56:06;;;;;;;32.60;20.40;;;-3.00;78.60;;;;;;5001427;28;20050;-83
2024/01/11 01:58:33;;;;;;;36.47;21.97;;;-3.00;78.50;;;;;;5024520;28;20120;-83
2024/01/11 02:00:59;;;;;;;33.60;21.30;;;-3.00;78.50;;;;;;5008266;28;20128;-83
2024/01/11 02:03:28;;;;;;;35.83;21.77;;;-3.00;78.50;;;;;;5028116;28;20518;-83
2024/01/11 02:05:54;;;;;;;34.63;20.70;;;-3.00;78.40;;;;;;5010829;28;20076;-83
2024/01/11 02:08:22;;;;;;;34.67;20.37;;;-3.00;78.40;;;;;;5028694;28;20034;-83
2024/01/11 02:10:49;;;;;;;33.17;19.90;;;-3.00;78.40;;;;;;5002263;28;20050;-83
2024/01/11 02:13:15;;;;;;;33.27;19.63;;;-3.00;78.40;;;;;;5018575;28;20033;-83
2024/01/11 02:15:41;;;;;;;37.80;22.37;;;-3.00;78.40;;;;;;5014210;28;20037;-84
2024/01/11 02:18:07;;;;;;;34.20;19.73;;;-2.90;78.50;;;;;;5002127;28;20397;-84
2024/01/11 02:20:33;;;;;;;35.80;21.33;;;-2.90;78.50;;;;;;5023093;28;20042;-83
2024/01/11 02:23:05;;;;;;;32.87;19.53;;;-2.90;78.40;;;;;;5009061;28;20030;-83
2024/01/11 02:25:31;;;;;;;32.23;20.50;;;-2.90;78.40;;;;;;5010629;28;20147;-83
2024/01/11 02:27:56;;;;;;;32.40;19.57;;;-2.90;78.40;;;;;;5018960;28;20151;-83
2024/01/11 02:30:22;;;;;;;37.47;23.33;;;-2.90;78.30;;;;;;5031331;28;20390;-83
2024/01/11 02:32:50;;;;;;;31.33;19.27;;;-2.90;78.20;;;;;;5007536;28;20125;-83
2024/01/11 02:35:16;;;;;;;32.77;20.17;;;-2.90;78.10;;;;;;5024307;28;20037;-83
2024/01/11 02:37:43;;;;;;;32.67;20.33;;;-2.90;77.90;;;;;;5023985;28;20072;-83
2024/01/11 02:40:09;;;;;;;34.33;21.13;;;-2.90;77.90;;;;;;5009976;28;20081;-83
2024/01/11 02:42:36;;;;;;;33.60;20.23;;;-2.90;77.80;;;;;;5024149;28;20129;-83
2024/01/11 02:45:04;;;;;;;35.27;20.60;;;-2.80;77.80;;;;;;5016251;28;20476;-83
2024/01/11 02:47:30;;;;;;;36.80;22.53;;;-2.80;77.70;;;;;;5015047;28;20045;-83
2024/01/11 02:49:56;;;;;;;35.13;21.97;;;-2.80;77.60;;;;;;5010503;28;20089;-83
2024/01/11 02:52:23;;;;;;;35.20;20.87;;;-2.80;77.50;;;;;;5005402;28;20120;-83
2024/01/11 02:54:48;;;;;;;36.80;21.00;;;-2.90;77.40;;;;;;5010831;28;20048;-83
2024/01/11 02:57:14;;;;;;;33.80;20.30;;;-2.70;77.50;;;;;;5001149;28;20030;-84
2024/01/11 02:59:42;;;;;;;34.60;21.17;;;-2.80;77.40;;;;;;5004537;28;20043;-84
2024/01/11 03:02:07;;;;;;;31.13;19.70;;;-2.90;77.30;;;;;;4998387;28;20042;-84
2024/01/11 03:04:33;;;;;;;35.73;20.40;;;-2.80;77.30;;;;;;5025890;28;20123;-84
2024/01/11 03:06:58;;;;;;;32.80;19.53;;;-2.90;77.10;;;;;;5020187;28;20049;-84
2024/01/11 03:09:24;;;;;;;36.47;22.20;;;-2.90;77.10;;;;;;5009435;28;20046;-84
2024/01/11 03:11:49;;;;;;;34.67;21.20;;;-2.90;77.10;;;;;;5025354;28;20479;-84
2024/01/11 03:14:15;;;;;;;36.63;22.07;;;-2.90;77.00;;;;;;5026934;28;20042;-84
2024/01/11 03:16:41;;;;;;;33.57;19.87;;;-2.90;76.90;;;;;;5024960;28;20034;-84
2024/01/11 03:19:07;;;;;;;33.73;19.73;;;-2.90;76.90;;;;;;5011595;28;20221;-84
2024/01/11 03:21:32;;;;;;;33.33;19.50;;;-2.90;76.90;;;;;;5031047;28;20171;-84
2024/01/11 03:23:59;;;;;;;32.43;20.00;;;-2.90;77.40;;;;;;5010083;28;20052;-84
2024/01/11 03:26:25;;;;;;;36.60;21.73;;;-2.90;76.90;;;;;;5009200;28;20052;-84
2024/01/11 03:28:51;;;;;;;38.03;21.53;;;-2.90;76.90;;;;;;5009662;28;20117;-84
2024/01/11 03:31:16;;;;;;;33.90;19.47;;;-2.90;76.90;;;;;;5023346;28;20056;-84
2024/01/11 03:33:42;;;;;;;31.03;19.33;;;-2.90;77.00;;;;;;5008344;28;20065;-84
2024/01/11 03:36:12;;;;;;;35.40;19.87;;;-2.90;76.90;;;;;;5026809;28;20121;-84
2024/01/11 03:38:37;;;;;;;33.60;20.17;;;-2.90;76.90;;;;;;5029184;28;20041;-84
2024/01/11 03:41:09;;;;;;;31.43;19.53;;;-2.90;76.90;;;;;;5014051;28;20046;-84
2024/01/11 03:43:35;;;;;;;33.27;19.70;;;-3.00;76.80;;;;;;5023158;28;20085;-84
2024/01/11 03:46:01;;;;;;;31.03;18.90;;;-2.90;76.90;;;;;;5030740;28;20050;-84
2024/01/11 03:48:26;;;;;;;35.00;21.13;;;-3.00;76.90;;;;;;5029388;28;20052;-84
2024/01/11 03:50:52;;;;;;;36.67;21.57;;;-2.90;76.90;;;;;;5010277;28;20041;-84
2024/01/11 03:53:18;;;;;;;34.03;19.97;;;-3.00;76.80;;;;;;5006329;28;20041;-84
2024/01/11 03:55:43;;;;;;;35.83;22.23;;;-3.00;76.90;;;;;;5007547;28;20037;-84
2024/01/11 03:58:09;;;;;;;35.37;20.37;;;-2.90;76.90;;;;;;5032251;28;20045;-85
2024/01/11 04:00:34;;;;;;;33.27;20.40;;;-3.00;76.80;;;;;;5003219;28;20476;-84
2024/01/11 04:03:01;;;;;;;34.57;20.70;;;-3.00;76.80;;;;;;5019319;28;20032;-84
2024/01/11 04:05:27;;;;;;;33.60;20.00;;;-3.00;76.80;;;;;;5020343;28;20034;-84
2024/01/11 04:07:53;;;;;;;35.47;20.50;;;-3.00;76.80;;;;;;5023937;28;20040;-84
2024/01/11 04:10:18;;;;;;;36.10;21.57;;;-3.00;76.90;;;;;;5036158;28;20037;-84
2024/01/11 04:12:44;;;;;;;33.63;19.53;;;-3.00;76.90;;;;;;5003771;28;20046;-84
2024/01/11 04:15:13;;;;;;;33.77;20.07;;;-3.00;76.90;;;;;;5002522;28;20049;-84
2024/01/11 04:17:39;;;;;;;33.53;20.23;;;-3.00;77.00;;;;;;5032130;28;20096;-84
2024/01/11 04:20:06;;;;;;;32.23;19.50;;;-3.00;77.00;;;;;;5021587;28;20488;-84
2024/01/11 04:22:32;;;;;;;35.50;19.33;;;-3.00;77.00;;;;;;5018752;28;20037;-84
2024/01/11 04:24:57;;;;;;;34.33;21.27;;;-2.90;77.00;;;;;;5002513;28;20052;-84
2024/01/11 04:27:23;;;;;;;35.33;19.80;;;-2.90;76.90;;;;;;5010105;28;20142;-84
2024/01/11 04:29:49;;;;;;;35.47;21.13;;;-3.00;76.90;;;;;;5021512;28;20038;-84
2024/01/11 04:32:14;;;;;;;32.80;19.20;;;-3.00;76.80;;;;;;5004375;28;20040;-84
2024/01/11 04:34:40;;;;;;;34.07;20.13;;;-3.00;76.80;;;;;;5012659;28;20034;-83
2024/01/11 04:37:06;;;;;;;30.63;19.37;;;-2.90;76.90;;;;;;5022600;28;20041;-84
2024/01/11 04:39:32;;;;;;;36.73;22.00;;;-3.00;76.90;;;;;;5032592;28;20127;-84
2024/01/11 04:42:00;;;;;;;33.63;20.67;;;-2.90;76.90;;;;;;5021482;28;20496;-84
2024/01/11 04:44:26;;;;;;;34.00;20.07;;;-2.90;76.90;;;;;;5023869;28;20066;-83
2024/01/11 04:46:51;;;;;;;35.27;20.00;;;-2.90;76.90;;;;;;5006678;28;20048;-83
2024/01/11 04:49:17;;;;;;;40.97;22.57;;;-3.00;76.90;;;;;;5021959;28;20076;-83
2024/01/11 04:51:43;;;;;;;37.20;20.80;;;-2.90;76.90;;;;;;5042331;28;20077;-83
2024/01/11 04:54:08;;;;;;;34.50;21.87;;;-2.90;76.80;;;;;;5005008;28;20037;-83
2024/01/11 04:56:34;;;;;;;39.10;20.77;;;-2.90;76.80;;;;;;5027899;28;20045;-83
2024/01/11 04:58:59;;;;;;;32.40;19.47;;;-2.90;76.70;;;;;;5008534;28;20037;-83
2024/01/11 05:01:25;;;;;;;36.03;20.63;;;-2.90;76.70;;;;;;5027672;28;20168;-83
2024/01/11 05:03:51;;;;;;;37.30;21.03;;;-3.00;76.70;;;;;;5025207;28;20459;-83
2024/01/11 05:06:21;;;;;;;36.17;20.30;;;-2.90;76.80;;;;;;5026808;28;20025;-83
2024/01/11 05:08:51;;;;;;;38.23;20.90;;;-3.00;76.80;;;;;;5027479;28;20060;-83
2024/01/11 05:11:23;;;;;;;35.03;19.53;;;-3.00;77.20;;;;;;5026127;28;20034;-83
2024/01/11 05:13:49;;;;;;;35.57;21.50;;;-3.00;76.80;;;;;;5007282;28;20132;-83
2024/01/11 05:16:26;;;;;;;38.60;22.10;;;-3.00;76.70;;;;;;5012865;28;20040;-83
2024/01/11 05:18:53;;;;;;;33.60;20.27;;;-3.00;76.70;;;;;;5001486;28;20124;-83
2024/01/11 05:21:19;;;;;;;35.53;20.60;;;-3.00;76.60;;;;;;5025190;28;20125;-83
2024/01/11 05:23:44;;;;;;;39.07;23.00;;;-3.00;76.50;;;;;;5010166;28;20076;-83
2024/01/11 05:26:10;;;;;;;38.57;21.93;;;-3.00;76.40;;;;;;5012394;28;20084;-83
2024/01/11 05:28:38;;;;;;;36.10;21.57;;;-3.00;76.20;;;;;;5025359;28;20037;-83
2024/01/11 05:31:06;;;;;;;40.17;23.17;;;-3.00;76.10;;;;;;5010551;28;20038;-82
2024/01/11 05:33:32;;;;;;;32.33;20.70;;;-3.00;76.00;;;;;;5028614;28;20119;-82
2024/01/11 05:35:58;;;;;;;33.27;19.73;;;-3.10;76.00;;;;;;5024898;28;20034;-82
2024/01/11 05:38:23;;;;;;;37.07;21.47;;;-3.10;75.90;;;;;;5005281;28;20080;-83
2024/01/11 05:40:49;;;;;;;39.83;20.83;;;-3.10;76.00;;;;;;5026944;28;20080;-83
2024/01/11 05:43:15;;;;;;;35.73;21.27;;;-3.10;76.10;;;;;;5021018;28;20058;-83
2024/01/11 05:45:40;;;;;;;37.97;22.00;;;-3.10;76.20;;;;;;5026400;28;20155;-83
2024/01/11 05:48:06;;;;;;;35.50;20.83;;;-3.10;76.30;;;;;;5005092;28;20512;-83
2024/01/11 05:50:32;;;;;;;38.30;21.93;;;-3.10;76.40;;;;;;5024382;28;20038;-83
2024/01/11 05:52:58;;;;;;;38.23;22.63;;;-3.10;76.50;;;;;;5006697;28;20033;-83
2024/01/11 05:55:23;;;;;;;34.27;19.77;;;-3.10;76.50;;;;;;5030387;28;20129;-83
2024/01/11 05:57:49;;;;;;;34.90;20.00;;;-3.10;76.60;;;;;;5025377;28;20033;-83
2024/01/11 06:00:15;;;;;;;40.90;23.50;;;-3.10;76.70;;;;;;5029775;28;20049;-83
2024/01/11 06:02:40;;;;;;;36.77;21.20;;;-3.10;76.80;;;;;;5019707;28;20034;-83
2024/01/11 06:05:09;;;;;;;43.40;23.83;;;-3.10;76.80;;;;;;5018127;28;20368;-83
2024/01/11 06:07:35;;;;;;;38.67;22.50;;;-3.10;76.90;;;;;;5027712;28;20049;-83
2024/01/11 06:10:02;;;;;;;35.43;20.80;;;-3.00;77.00;;;;;;5029762;28;20069;-83
2024/01/11 06:12:28;;;;;;;38.77;23.43;;;-3.00;77.20;;;;;;5012397;28;20037;-83
2024/01/11 06:14:54;;;;;;;38.47;22.40;;;-3.00;77.20;;;;;;5020953;28;20065;-83
2024/01/11 06:17:20;;;;;;;42.37;25.23;;;-3.00;77.30;;;;;;5019565;28;20080;-83
2024/01/11 06:19:46;;;;;;;41.30;21.90;;;-3.00;77.50;;;;;;5013151;28;20049;-83
2024/01/11 06:22:11;;;;;;;41.70;24.00;;;-3.00;77.40;;;;;;5027858;28;20062;-82
2024/01/11 06:24:37;;;;;;;40.67;23.07;;;-3.00;77.50;;;;;;5031270;28;20038;-82
2024/01/11 06:27:02;;;;;;;38.93;22.50;;;-2.90;77.70;;;;;;5035565;28;20052;-83
2024/01/11 06:29:28;;;;;;;39.90;23.93;;;-2.90;77.80;;;;;;5034649;28;20103;-82
2024/01/11 06:31:54;;;;;;;42.63;24.20;;;-2.90;77.90;;;;;;5011077;28;20032;-83
2024/01/11 06:34:19;;;;;;;41.20;23.73;;;-2.90;78.00;;;;;;5024133;28;20030;-83
2024/01/11 06:36:45;;;;;;;42.97;24.30;;;-2.90;78.10;;;;;;5016029;28;20597;-83
2024/01/11 06:39:12;;;;;;;44.50;26.80;;;-2.80;78.30;;;;;;5031698;28;20041;-79
2024/01/11 06:41:38;;;;;;;41.63;24.20;;;-2.80;78.40;;;;;;5024113;28;20053;-83
2024/01/11 06:44:04;;;;;;;41.00;25.60;;;-2.80;78.40;;;;;;5021428;28;20053;-83
2024/01/11 06:46:30;;;;;;;46.23;26.30;;;-2.70;78.50;;;;;;5022964;28;20099;-84
2024/01/11 06:48:56;;;;;;;42.17;24.50;;;-2.70;78.60;;;;;;5017963;28;20030;-83
2024/01/11 06:51:23;;;;;;;37.43;22.73;;;-2.70;78.60;;;;;;5010673;28;20050;-83
2024/01/11 06:53:49;;;;;;;44.53;25.03;;;-2.70;78.70;;;;;;5006558;28;20042;-83
2024/01/11 06:56:19;;;;;;;41.77;23.90;;;-2.60;78.90;;;;;;5027622;28;20045;-83
2024/01/11 06:58:45;;;;;;;47.97;25.57;;;-2.60;79.00;;;;;;5007139;28;20374;-83
2024/01/11 07:01:12;;;;;;;38.93;23.03;;;-2.60;79.40;;;;;;5005051;28;20041;-83
2024/01/11 07:03:38;;;;;;;40.30;23.90;;;-2.60;79.10;;;;;;5008335;28;20029;-83
2024/01/11 07:06:04;;;;;;;39.73;24.13;;;-2.50;79.30;;;;;;5011399;28;20033;-83
2024/01/11 07:08:30;;;;;;;43.33;24.27;;;-2.50;79.30;;;;;;5009949;28;20091;-83
2024/01/11 07:10:56;;;;;;;40.47;23.73;;;-2.40;79.50;;;;;;5021306;28;20046;-83
2024/01/11 07:13:22;;;;;;;42.63;23.67;;;-2.40;79.60;;;;;;5007450;28;20060;-83
2024/01/11 07:15:48;;;;;;;40.53;23.63;;;-2.40;79.70;;;;;;5023503;28;20034;-83
2024/01/11 07:18:16;;;;;;;45.07;25.30;;;-2.30;79.80;;;;;;5003491;28;20041;-83
2024/01/11 07:20:41;;;;;;;42.70;24.60;;;-2.30;79.90;;;;;;5023102;28;20495;-84
2024/01/11 07:23:07;;;;;;;38.67;23.40;;;-2.30;79.90;;;;;;5015744;28;20172;-84
2024/01/11 07:25:34;;;;;;;46.17;25.93;;;-2.20;80.10;;;;;;5005596;28;20037;-84
2024/01/11 07:28:00;;;;;;;42.70;25.23;;;-2.20;80.10;;;;;;5004856;28;20447;-83
2024/01/11 07:30:26;;;;;;;42.87;26.10;;;-2.10;80.20;;;;;;5005067;28;20133;-83
2024/01/11 07:32:51;;;;;;;43.40;24.40;;;-2.10;80.20;;;;;;5006090;28;20069;-83
2024/01/11 07:35:17;;;;;;;45.73;27.10;;;-2.10;80.30;;;;;;5000085;28;20507;-84
2024/01/11 07:37:43;;;;;;;45.00;26.23;;;-2.00;80.40;;;;;;5039429;28;20037;-84
2024/01/11 07:40:10;;;;;;;41.17;25.23;;;-2.00;80.40;;;;;;5018847;28;20132;-84
2024/01/11 07:42:38;;;;;;;45.20;26.97;;;-2.00;80.40;;;;;;5021457;28;20045;-83
2024/01/11 07:45:05;;;;;;;50.00;29.40;;;-2.00;80.50;;;;;;4986680;28;20056;-83
2024/01/11 07:47:31;;;;;;;47.60;27.57;;;-1.90;80.60;;;;;;5002310;28;20574;-83
2024/01/11 07:49:57;;;;;;;41.20;24.03;;;-1.90;80.60;;;;;;5021353;28;20112;-84
2024/01/11 07:52:22;;;;;;;43.13;25.57;;;-1.80;80.60;;;;;;5020283;28;20072;-83
2024/01/11 07:54:48;;;;;;;42.37;26.27;;;-1.80;80.70;;;;;;5021121;28;20041;-82
2024/01/11 07:57:13;;;;;;;44.33;26.60;;;-1.80;80.70;;;;;;5023024;28;20042;-82
2024/01/11 07:59:39;;;;;;;43.03;25.10;;;-1.70;80.80;;;;;;5007485;28;20085;-82
2024/01/11 08:02:06;;;;;;;40.43;24.73;;;-1.70;80.80;;;;;;5027920;28;20059;-83
2024/01/11 08:04:32;;;;;;;42.67;25.43;;;-1.70;80.80;;;;;;5003222;28;20034;-82
2024/01/11 08:06:59;;;;;;;40.03;25.07;;;-1.70;80.80;;;;;;5026193;28;20099;-82
2024/01/11 08:09:28;;;;;;;46.47;27.13;;;-1.60;80.90;;;;;;5020518;28;20053;-82
2024/01/11 08:11:54;;;;;;;44.27;25.37;;;-1.60;80.90;;;;;;5024642;28;20041;-83
2024/01/11 08:14:24;;;;;;;46.10;26.87;;;-1.60;80.90;;;;;;5014508;28;20091;-82
2024/01/11 08:16:50;;;;;;;44.63;26.57;;;-1.50;81.00;;;;;;5028951;28;20077;-83
2024/01/11 08:19:16;;;;;;;44.73;25.97;;;-1.50;81.00;;;;;;5023877;28;20032;-82
2024/01/11 08:21:42;;;;;;;53.47;29.67;;;-1.50;81.00;;;;;;5022724;28;20033;-82
2024/01/11 08:24:08;;;;;;;45.03;26.33;;;-1.40;81.10;;;;;;5026324;28;20030;-81
2024/01/11 08:26:34;;;;;;;46.67;26.53;;;-1.40;81.10;;;;;;5024834;28;20088;-82
2024/01/11 08:28:59;;;;;;;47.23;27.80;;;-1.40;81.10;;;;;;5023861;28;20034;-82
2024/01/11 08:31:25;;;;;;;46.47;25.77;;;-1.40;81.20;;;;;;5006372;28;20045;-82
2024/01/11 08:33:51;;;;;;;46.10;27.27;;;-1.40;81.30;;;;;;5042926;28;20114;-82
2024/01/11 08:36:16;;;;;;;42.93;25.97;;;-1.30;81.30;;;;;;5028349;28;20030;-82
2024/01/11 08:38:42;;;;;;;46.07;26.93;;;-1.30;81.30;;;;;;5006664;28;20102;-81
2024/01/11 08:41:08;;;;;;;42.13;25.17;;;-1.30;81.40;;;;;;5029010;28;20038;-81
2024/01/11 08:43:33;;;;;;;48.20;28.00;;;-1.20;81.50;;;;;;5009812;28;20349;-81
2024/01/11 08:45:59;;;;;;;43.93;26.20;;;-1.20;81.50;;;;;;5026539;28;20057;-81
2024/01/11 08:48:25;;;;;;;40.67;24.90;;;-1.20;81.50;;;;;;5031821;28;20041;-81
2024/01/11 08:50:51;;;;;;;46.23;28.47;;;-1.20;81.60;;;;;;5009851;28;20080;-81
2024/01/11 08:53:17;;;;;;;47.83;29.13;;;-1.10;81.70;;;;;;5031414;28;20463;-81
2024/01/11 08:55:43;;;;;;;49.57;29.50;;;-1.10;81.70;;;;;;5021049;28;20064;-81
2024/01/11 08:58:10;;;;;;;50.00;30.67;;;-1.10;81.70;;;;;;5026215;28;20492;-81
2024/01/11 09:00:36;;;;;;;46.00;27.50;;;-1.00;81.90;;;;;;5040152;28;20435;-82
2024/01/11 09:03:03;;;;;;;46.97;28.10;;;-1.00;81.90;;;;;;5009150;28;20125;-81
2024/01/11 09:05:28;;;;;;;47.43;28.13;;;-1.00;81.90;;;;;;5005105;28;20037;-82
2024/01/11 09:07:54;;;;;;;56.53;32.80;;;-0.90;82.00;;;;;;5021437;28;20459;-82
2024/01/11 09:10:20;;;;;;;47.13;28.23;;;-0.90;82.00;;;;;;5018708;28;20053;-82
2024/01/11 09:12:46;;;;;;;44.27;26.13;;;-0.90;82.00;;;;;;5008213;28;20089;-82
2024/01/11 09:15:12;;;;;;;42.27;26.07;;;-0.90;82.00;;;;;;5009267;28;20038;-82
2024/01/11 09:17:38;;;;;;;47.80;28.90;;;-0.90;82.00;;;;;;5024547;28;20622;-82
2024/01/11 09:20:04;;;;;;;46.43;26.87;;;-0.80;82.20;;;;;;5009983;28;20435;-82
2024/01/11 09:22:30;;;;;;;42.83;26.97;;;-0.70;82.30;;;;;;5012619;28;20052;-82
2024/01/11 09:24:56;;;;;;;42.20;26.07;;;-0.70;82.30;;;;;;5025830;28;20037;-82
2024/01/11 09:27:22;;;;;;;43.30;25.83;;;-0.70;82.40;;;;;;5029383;28;20056;-82
2024/01/11 09:29:48;;;;;;;46.03;26.63;;;-0.70;82.40;;;;;;5011494;28;20045;-82
2024/01/11 09:32:14;;;;;;;43.17;27.23;;;-0.60;82.50;;;;;;5008946;28;20038;-82
2024/01/11 09:34:39;;;;;;;41.93;25.87;;;-0.60;82.60;;;;;;5021383;28;20030;-81
2024/01/11 09:37:05;;;;;;;47.00;26.93;;;-0.60;82.60;;;;;;5022799;28;20109;-82
2024/01/11 09:39:30;;;;;;;41.67;25.70;;;-0.50;82.80;;;;;;5005896;28;20404;-81
2024/01/11 09:42:03;;;;;;;46.63;27.13;;;-0.50;82.90;;;;;;5022670;28;20040;-81
2024/01/11 09:44:30;;;;;;;44.63;27.07;;;-0.40;83.10;;;;;;5008054;28;20137;-82
2024/01/11 09:46:58;;;;;;;41.03;26.67;;;-0.40;83.20;;;;;;5006395;28;20109;-82
2024/01/11 09:49:24;;;;;;;42.97;26.43;;;-0.40;83.30;;;;;;5004255;28;20516;-81
2024/01/11 09:51:51;;;;;;;43.70;27.03;;;-0.40;83.30;;;;;;5021478;28;20068;-82
2024/01/11 09:54:20;;;;;;;42.10;25.33;;;-0.30;83.50;;;;;;5022672;28;20038;-82
2024/01/11 09:56:48;;;;;;;45.00;25.77;;;-0.30;83.50;;;;;;5028226;28;20041;-81
2024/01/11 09:59:18;;;;;;;39.70;25.53;;;-0.30;83.50;;;;;;5021836;28;20069;-82
2024/01/11 10:01:44;;;;;;;43.83;26.33;;;-0.20;83.60;;;;;;5020645;28;20078;-82
2024/01/11 10:04:11;;;;;;;45.43;27.77;;;-0.20;83.70;;;;;;5025212;28;20096;-81
2024/01/11 10:06:38;;;;;;;42.97;26.97;;;-0.20;83.70;;;;;;5022981;28;20038;-82
2024/01/11 10:09:04;;;;;;;41.83;25.60;;;-0.20;83.70;;;;;;5027833;28;20091;-82
2024/01/11 10:11:29;;;;;;;43.03;25.83;;;0.20;84.00;;;;;;5024066;28;20050;-82
2024/01/11 10:14:00;;;;;;;43.60;26.60;;;-0.10;83.90;;;;;;5012612;28;20037;-81
2024/01/11 10:16:27;;;;;;;44.20;27.50;;;-0.10;83.90;;;;;;5027319;28;20076;-81
2024/01/11 10:18:56;;;;;;;44.03;26.80;;;0.00;84.00;;;;;;5024092;28;20056;-82
2024/01/11 10:21:22;;;;;;;39.47;24.43;;;0.00;84.50;;;;;;5020442;28;20038;-81
2024/01/11 10:23:49;;;;;;;44.83;26.33;;;0.00;84.10;;;;;;5015481;28;20083;-81
2024/01/11 10:26:18;;;;;;;41.07;24.87;;;0.00;84.10;;;;;;5018042;28;20034;-81
2024/01/11 10:28:47;;;;;;;41.47;25.90;;;0.00;84.10;;;;;;5025802;28;20040;-81
2024/01/11 10:31:16;;;;;;;41.53;25.77;;;0.10;84.20;;;;;;5027172;28;20053;-81
2024/01/11 10:33:42;;;;;;;45.23;26.73;;;0.10;84.10;;;;;;5012927;28;20045;-81
2024/01/11 10:36:09;;;;;;;44.90;27.50;;;0.10;84.10;;;;;;5019955;28;20030;-82
2024/01/11 10:38:38;;;;;;;40.60;24.47;;;0.10;84.20;;;;;;5006782;28;20041;-82
2024/01/11 10:41:06;;;;;;;42.67;25.40;;;0.10;84.20;;;;;;5020294;28;20038;-81
2024/01/11 10:43:32;;;;;;;43.63;26.10;;;0.10;84.40;;;;;;5024965;28;20143;-82
2024/01/11 10:46:04;;;;;;;43.07;24.77;;;0.20;84.50;;;;;;5022421;28;20112;-81
2024/01/11 10:48:32;;;;;;;41.53;24.63;;;0.20;84.50;;;;;;5022600;28;20044;-81
2024/01/11 10:51:05;;;;;;;40.83;24.63;;;0.20;84.50;;;;;;5023314;28;20100;-79
2024/01/11 10:53:45;;;;;;;41.15;24.60;;;0.20;84.60;;;;;;5025851;28;20037;-81
2024/01/11 10:56:12;;;;;;;41.33;24.47;;;0.20;84.70;;;;;;5021572;28;20078;-80
2024/01/11 10:58:40;;;;;;;38.67;24.67;;;0.20;84.70;;;;;;5022310;28;20034;-80
2024/01/11 11:01:07;;;;;;;39.37;23.77;;;0.20;84.90;;;;;;5017795;28;20061;-80
2024/01/11 11:03:35;;;;;;;39.43;23.87;;;0.30;84.90;;;;;;5007329;28;20045;-80
2024/01/11 11:06:01;;;;;;;38.90;23.93;;;0.30;85.00;;;;;;5005168;28;20052;-80
2024/01/11 11:08:27;;;;;;;37.97;24.83;;;0.30;85.00;;;;;;5008009;28;20132;-80
2024/01/11 11:10:57;;;;;;;40.27;25.03;;;0.30;85.10;;;;;;5023412;28;20040;-81
2024/01/11 11:13:24;;;;;;;37.80;23.60;;;0.30;85.30;;;;;;5006423;28;20033;-82
2024/01/11 11:15:50;;;;;;;40.10;23.13;;;0.30;85.30;;;;;;5029475;28;20026;-82
2024/01/11 11:18:17;;;;;;;41.83;25.70;;;0.30;85.40;;;;;;5031297;28;20481;-82
2024/01/11 11:20:43;;;;;;;40.47;25.50;;;0.40;85.50;;;;;;5009779;28;20045;-82
2024/01/11 11:23:10;;;;;;;44.83;25.60;;;0.40;85.70;;;;;;5018016;28;20381;-81
2024/01/11 11:25:36;;;;;;;39.90;24.77;;;0.40;85.80;;;;;;5012335;28;20069;-81
2024/01/11 11:28:04;;;;;;;46.17;26.53;;;0.40;85.90;;;;;;5019102;28;20377;-81
2024/01/11 11:30:38;;;;;;;43.60;25.43;;;0.40;86.10;;;;;;5014620;28;20451;-81
2024/01/11 11:33:21;;;;;;;38.92;23.90;;;0.50;86.30;;;;;;5006669;28;20042;-80
2024/01/11 11:35:47;;;;;;;39.53;23.97;;;0.50;86.50;;;;;;5019615;28;20129;-81
2024/01/11 11:38:22;;;;;;;42.10;24.57;;;0.50;86.50;;;;;;5021711;28;20457;-80
2024/01/11 11:40:49;;;;;;;41.72;25.05;;;0.50;86.70;;;;;;5000527;28;20030;-80
2024/01/11 11:43:17;;;;;;;41.93;24.70;;;0.50;86.70;;;;;;5012244;28;20481;-81
2024/01/11 11:45:45;;;;;;;41.20;23.73;;;0.50;86.90;;;;;;4999005;28;20046;-80
2024/01/11 11:48:39;;;;;;;39.63;24.07;;;0.60;87.10;;;;;;5025435;28;20041;-80
2024/01/11 11:51:10;;;;;;;42.42;23.80;;;0.60;87.60;;;;;;4998373;28;20049;-80
2024/01/11 11:53:41;;;;;;;40.03;25.17;;;0.60;87.20;;;;;;5007588;28;20068;-80
2024/01/11 11:56:12;;;;;;;40.97;24.03;;;0.60;87.70;;;;;;5017072;28;20037;-80
2024/01/11 11:58:41;;;;;;;49.77;27.67;;;0.60;87.30;;;;;;5021745;28;20123;-80
2024/01/11 12:01:06;;;;;;;43.87;25.57;;;0.60;87.60;;;;;;5025351;28;20112;-80
2024/01/11 12:03:37;;;;;;;46.73;26.07;;;0.60;87.60;;;;;;5008254;28;20073;-81
2024/01/11 12:06:08;;;;;;;44.63;25.83;;;0.70;87.80;;;;;;5020649;28;20121;-80
2024/01/11 12:08:35;;;;;;;45.03;25.47;;;0.70;87.90;;;;;;5003834;28;20061;-80
2024/01/11 12:11:01;;;;;;;45.90;25.90;;;0.70;88.00;;;;;;4999507;28;20045;-80
2024/01/11 12:13:27;;;;;;;42.70;24.97;;;0.80;88.20;;;;;;5031144;28;20136;-81
2024/01/11 12:15:53;;;;;;;46.33;24.67;;;0.70;88.20;;;;;;5022900;28;20405;-81
2024/01/11 12:18:19;;;;;;;41.87;25.87;;;0.80;88.40;;;;;;5026632;28;20137;-80
2024/01/11 12:20:45;;;;;;;47.23;26.33;;;0.80;88.50;;;;;;5021988;28;20426;-79
2024/01/11 12:23:10;;;;;;;47.10;27.20;;;0.80;88.60;;;;;;5023562;28;20112;-79
2024/01/11 12:25:36;;;;;;;42.80;26.33;;;0.80;88.60;;;;;;5023622;28;20124;-80